createdAt,value
2023-01-25T00:00:13.015Z,31.20
2023-01-25T00:02:39.532Z,30.35
2023-01-25T00:05:06.882Z,30.33
2023-01-25T00:07:33.695Z,32.42
2023-01-25T00:10:00.122Z,29.00
2023-01-25T00:12:26.582Z,29.15
2023-01-25T00:14:53.003Z,31.38
2023-01-25T00:17:19.463Z,32.63
2023-01-25T00:19:45.868Z,30.50
2023-01-25T00:22:12.354Z,33.67
2023-01-25T00:24:38.835Z,28.30
2023-01-25T00:27:05.312Z,32.28
2023-01-25T00:29:31.883Z,31.47
2023-01-25T00:32:07.640Z,31.30
2023-01-25T00:34:44.497Z,30.85
2023-01-25T00:37:14.973Z,27.73
2023-01-25T00:39:41.642Z,31.88
2023-01-25T00:42:10.864Z,30.00
2023-01-25T00:44:38.532Z,32.10
2023-01-25T00:47:05.433Z,32.55
2023-01-25T00:49:32.307Z,30.77
2023-01-25T00:51:59.578Z,27.92
2023-01-25T00:54:26.484Z,31.90
2023-01-25T00:56:53.831Z,34.40
2023-01-25T00:59:20.395Z,37.13
2023-01-25T01:01:46.889Z,28.27
2023-01-25T01:04:13.503Z,33.47
2023-01-25T01:06:41.243Z,29.67
2023-01-25T01:09:12.844Z,34.88
2023-01-25T01:11:39.334Z,27.92
2023-01-25T01:14:05.875Z,31.27
2023-01-25T01:16:32.615Z,31.45
2023-01-25T01:18:59.125Z,31.60
2023-01-25T01:21:25.817Z,30.92
2023-01-25T01:23:54.495Z,31.92
2023-01-25T01:26:21.066Z,35.70
2023-01-25T01:28:47.949Z,31.50
2023-01-25T01:31:20.000Z,30.70
2023-01-25T01:33:55.037Z,34.47
2023-01-25T01:36:23.935Z,28.92
2023-01-25T01:38:50.499Z,33.63
2023-01-25T01:41:18.450Z,35.03
2023-01-25T01:43:45.371Z,29.43
2023-01-25T01:46:20.890Z,31.65
2023-01-25T01:48:47.419Z,33.60
2023-01-25T01:51:24.442Z,35.85
2023-01-25T01:54:20.138Z,32.55
2023-01-25T01:56:52.556Z,33.70
2023-01-25T01:59:21.278Z,35.28
2023-01-25T02:01:47.776Z,39.50
2023-01-25T02:04:15.782Z,34.30
2023-01-25T02:07:06.602Z,31.25
2023-01-25T02:09:36.068Z,34.63
2023-01-25T02:12:04.410Z,31.52
2023-01-25T02:14:31.358Z,33.33
2023-01-25T02:16:58.268Z,34.20
2023-01-25T02:19:38.942Z,36.45
2023-01-25T02:22:13.407Z,33.97
2023-01-25T02:24:45.004Z,34.40
2023-01-25T02:27:11.536Z,33.65
2023-01-25T02:29:39.529Z,34.67
2023-01-25T02:32:06.833Z,39.80
2023-01-25T02:34:33.304Z,31.67
2023-01-25T02:36:59.995Z,34.08
2023-01-25T02:39:28.257Z,31.85
2023-01-25T02:41:55.084Z,35.80
2023-01-25T02:44:25.072Z,32.15
2023-01-25T02:46:51.870Z,33.00
2023-01-25T02:49:19.232Z,33.65
2023-01-25T02:51:50.171Z,28.45
2023-01-25T02:54:19.419Z,30.40
2023-01-25T02:56:45.915Z,33.72
2023-01-25T02:59:13.380Z,30.70
2023-01-25T03:01:41.480Z,32.60
2023-01-25T03:04:08.788Z,30.45
2023-01-25T03:06:35.743Z,33.80
2023-01-25T03:09:04.599Z,32.20
2023-01-25T03:11:31.141Z,32.73
2023-01-25T03:13:57.833Z,33.90
2023-01-25T03:16:24.514Z,33.63
2023-01-25T03:18:54.641Z,31.38
2023-01-25T03:21:22.641Z,30.42
2023-01-25T03:23:55.839Z,33.97
2023-01-25T03:26:23.622Z,37.10
2023-01-25T03:28:50.162Z,31.23
2023-01-25T03:31:18.075Z,31.00
2023-01-25T03:33:44.945Z,34.08
2023-01-25T03:36:12.438Z,33.60
2023-01-25T03:38:38.978Z,33.80
2023-01-25T03:41:05.627Z,34.40
2023-01-25T03:43:32.066Z,34.72
2023-01-25T03:46:01.072Z,34.78
2023-01-25T03:48:28.674Z,36.57
2023-01-25T03:50:57.391Z,31.52
2023-01-25T03:53:32.838Z,33.58
2023-01-25T03:56:05.101Z,35.00
2023-01-25T03:58:31.810Z,33.85
2023-01-25T04:00:59.655Z,35.67
2023-01-25T04:03:26.977Z,32.50
2023-01-25T04:05:54.802Z,33.75
2023-01-25T04:08:21.727Z,33.10
2023-01-25T04:10:56.334Z,33.03
2023-01-25T04:13:24.442Z,36.23
2023-01-25T04:15:51.362Z,33.58
2023-01-25T04:18:18.631Z,32.78
2023-01-25T04:20:45.760Z,32.33
2023-01-25T04:23:12.697Z,33.65
2023-01-25T04:25:39.271Z,36.03
2023-01-25T04:28:05.870Z,38.42
2023-01-25T04:30:32.512Z,46.38
2023-01-25T04:33:04.419Z,35.30
2023-01-25T04:35:31.243Z,40.00
2023-01-25T04:37:59.519Z,39.70
2023-01-25T04:40:26.617Z,37.05
2023-01-25T04:42:53.140Z,37.65
2023-01-25T04:45:19.727Z,39.50
2023-01-25T04:47:46.246Z,42.25
2023-01-25T04:50:12.757Z,33.80
2023-01-25T04:52:39.295Z,42.20
2023-01-25T04:55:06.241Z,39.60
2023-01-25T04:57:32.712Z,36.05
2023-01-25T04:59:59.227Z,38.80
2023-01-25T05:02:26.957Z,38.67
2023-01-25T05:04:53.459Z,38.80
2023-01-25T05:07:19.931Z,40.63
2023-01-25T05:09:46.393Z,39.78
2023-01-25T05:12:13.783Z,36.28
2023-01-25T05:14:40.621Z,43.63
2023-01-25T05:17:07.979Z,43.42
2023-01-25T05:19:35.171Z,39.80
2023-01-25T05:22:03.691Z,40.58
2023-01-25T05:24:32.671Z,41.55
2023-01-25T05:27:06.148Z,36.93
2023-01-25T05:29:38.192Z,35.80
2023-01-25T05:32:09.986Z,39.53
2023-01-25T05:34:36.683Z,37.58
2023-01-25T05:37:04.926Z,40.05
2023-01-25T05:39:31.994Z,40.87
2023-01-25T05:41:58.458Z,41.25
2023-01-25T05:44:25.238Z,42.03
2023-01-25T05:46:52.085Z,42.13
2023-01-25T05:49:19.735Z,49.50
2023-01-25T05:51:46.630Z,40.93
2023-01-25T05:54:17.547Z,39.60
2023-01-25T05:56:44.494Z,37.83
2023-01-25T05:59:12.314Z,52.03
2023-01-25T06:01:39.376Z,42.90
2023-01-25T06:04:06.215Z,40.57
2023-01-25T06:06:32.947Z,42.10
2023-01-25T06:09:00.642Z,39.83
2023-01-25T06:11:27.110Z,39.40
2023-01-25T06:13:53.576Z,45.75
2023-01-25T06:16:20.681Z,41.03
2023-01-25T06:18:47.326Z,43.58
2023-01-25T06:21:13.969Z,41.25
2023-01-25T06:23:41.176Z,43.08
2023-01-25T06:26:12.637Z,35.92
2023-01-25T06:28:39.941Z,39.73
2023-01-25T06:31:18.866Z,35.78
2023-01-25T06:33:50.576Z,38.90
2023-01-25T06:36:20.035Z,39.22
2023-01-25T06:38:51.256Z,41.33
2023-01-25T06:41:18.409Z,38.47
2023-01-25T06:43:45.305Z,41.72
2023-01-25T06:46:12.694Z,39.25
2023-01-25T06:48:39.906Z,37.42
2023-01-25T06:51:08.639Z,38.30
2023-01-25T06:53:38.329Z,39.00
2023-01-25T06:56:22.192Z,39.42
2023-01-25T06:58:50.428Z,42.70
2023-01-25T07:01:20.577Z,40.50
2023-01-25T07:03:51.540Z,37.63
2023-01-25T07:06:18.796Z,36.67
2023-01-25T07:08:45.286Z,40.65
2023-01-25T07:11:13.762Z,39.70
2023-01-25T07:13:47.764Z,40.95
2023-01-25T07:16:23.242Z,46.00
2023-01-25T07:18:49.806Z,38.70
2023-01-25T07:21:20.408Z,40.38
2023-01-25T07:23:47.728Z,40.35
2023-01-25T07:26:19.394Z,44.40
2023-01-25T07:28:46.814Z,40.38
2023-01-25T07:31:14.605Z,41.87
2023-01-25T07:33:41.749Z,45.17
2023-01-25T07:36:10.453Z,41.28
2023-01-25T07:38:37.395Z,39.40
2023-01-25T07:41:04.376Z,42.20
2023-01-25T07:43:31.222Z,38.37
2023-01-25T07:46:11.179Z,45.20
2023-01-25T07:48:38.477Z,40.65
2023-01-25T07:51:12.852Z,36.78
2023-01-25T07:53:43.482Z,41.70
2023-01-25T07:56:11.473Z,44.27
2023-01-25T07:58:38.716Z,46.22
2023-01-25T08:01:09.977Z,38.47
2023-01-25T08:03:36.884Z,47.55
2023-01-25T08:06:07.011Z,41.60
2023-01-25T08:08:35.782Z,43.93
2023-01-25T08:11:09.460Z,42.30
2023-01-25T08:13:36.274Z,41.42
2023-01-25T08:16:02.819Z,43.15
2023-01-25T08:18:29.377Z,37.28
2023-01-25T08:20:59.233Z,43.43
2023-01-25T08:23:26.413Z,44.13
2023-01-25T08:25:52.990Z,41.38
2023-01-25T08:28:19.497Z,42.55
2023-01-25T08:30:56.724Z,43.35
2023-01-25T08:33:24.062Z,41.87
2023-01-25T08:35:57.415Z,45.15
2023-01-25T08:38:23.962Z,42.22
2023-01-25T08:40:50.996Z,40.90
2023-01-25T08:43:17.616Z,47.22
2023-01-25T08:45:44.482Z,41.43
2023-01-25T08:48:15.453Z,41.50
2023-01-25T08:50:48.002Z,42.78
2023-01-25T08:53:14.553Z,43.28
2023-01-25T08:55:43.001Z,38.25
2023-01-25T08:58:19.775Z,46.00
2023-01-25T09:00:46.335Z,45.63
2023-01-25T09:03:13.630Z,46.38
2023-01-25T09:05:41.010Z,43.08
2023-01-25T09:08:09.986Z,46.90
2023-01-25T09:10:36.878Z,44.90
2023-01-25T09:13:03.549Z,42.08
2023-01-25T09:15:30.388Z,40.58
2023-01-25T09:17:57.490Z,48.45
2023-01-25T09:20:24.454Z,42.03
2023-01-25T09:22:51.146Z,45.57
2023-01-25T09:25:17.677Z,41.25
2023-01-25T09:27:44.147Z,41.67
2023-01-25T09:30:18.239Z,49.65
2023-01-25T09:32:45.511Z,44.35
2023-01-25T09:35:12.120Z,40.20
2023-01-25T09:37:39.050Z,50.40
2023-01-25T09:40:07.726Z,46.10
2023-01-25T09:42:49.506Z,42.63
2023-01-25T09:45:35.429Z,41.80
2023-01-25T09:48:25.781Z,50.00
2023-01-25T09:51:16.388Z,43.65
2023-01-25T09:53:52.861Z,46.05
2023-01-25T09:56:22.053Z,52.42
2023-01-25T09:58:52.378Z,50.65
2023-01-25T10:01:21.696Z,54.47
2023-01-25T10:04:04.158Z,42.88
2023-01-25T10:06:40.630Z,46.35
2023-01-25T10:09:27.505Z,52.42
2023-01-25T10:11:54.205Z,47.10
2023-01-25T10:14:21.626Z,52.37
2023-01-25T10:16:59.046Z,47.95
2023-01-25T10:20:03.050Z,51.33
2023-01-25T10:22:36.421Z,48.47
2023-01-25T10:25:12.114Z,47.08
2023-01-25T10:27:55.910Z,45.47
2023-01-25T10:30:39.603Z,46.60
2023-01-25T10:33:15.351Z,49.55
2023-01-25T10:35:47.551Z,43.10
2023-01-25T10:38:24.912Z,45.90
2023-01-25T10:41:04.398Z,46.60
2023-01-25T10:43:30.889Z,36.70
2023-01-25T10:45:57.556Z,43.90
2023-01-25T10:48:39.166Z,48.80
2023-01-25T10:51:05.869Z,48.03
2023-01-25T10:53:35.814Z,46.67
2023-01-25T10:56:11.497Z,42.42
2023-01-25T10:58:46.323Z,45.20
2023-01-25T11:01:25.569Z,37.67
2023-01-25T11:03:52.282Z,40.35
2023-01-25T11:06:39.208Z,46.87
2023-01-25T11:09:20.880Z,45.08
2023-01-25T11:12:20.888Z,48.85
2023-01-25T11:14:51.911Z,47.80
2023-01-25T11:17:31.490Z,44.25
2023-01-25T11:20:16.057Z,43.67
2023-01-25T11:22:57.480Z,47.55
2023-01-25T11:25:28.891Z,46.47
2023-01-25T11:28:21.276Z,46.78
2023-01-25T11:30:48.968Z,39.10
2023-01-25T11:33:18.062Z,47.10
2023-01-25T11:36:22.926Z,54.53
2023-01-25T11:39:14.348Z,45.70
2023-01-25T11:41:51.170Z,39.50
2023-01-25T11:44:20.624Z,46.20
2023-01-25T11:47:08.981Z,45.53
2023-01-25T11:49:43.323Z,46.33
2023-01-25T11:52:31.894Z,44.78
2023-01-25T11:55:19.531Z,48.33
2023-01-25T11:58:01.825Z,55.70
2023-01-25T12:00:36.207Z,75.47
2023-01-25T12:03:21.389Z,49.88
2023-01-25T12:06:22.724Z,44.85
2023-01-25T12:09:12.476Z,42.83
2023-01-25T12:12:10.622Z,32.78
2023-01-25T12:14:49.461Z,42.47
2023-01-25T12:17:38.947Z,61.17
2023-01-25T12:20:19.604Z,46.63
2023-01-25T12:22:56.418Z,44.88
2023-01-25T12:25:43.186Z,49.45
2023-01-25T12:28:09.675Z,51.80
2023-01-25T12:30:46.717Z,46.72
2023-01-25T12:33:20.164Z,40.92
2023-01-25T12:35:53.543Z,49.97
2023-01-25T12:38:35.287Z,48.33
2023-01-25T12:41:14.524Z,48.37
2023-01-25T12:44:24.618Z,50.97
2023-01-25T12:46:55.344Z,52.38
2023-01-25T12:49:38.541Z,48.10
2023-01-25T12:52:15.616Z,49.03
2023-01-25T12:54:45.602Z,48.63
2023-01-25T12:57:17.207Z,50.70
2023-01-25T12:59:49.994Z,38.85
2023-01-25T13:02:44.625Z,54.00
2023-01-25T13:05:30.066Z,48.92
2023-01-25T13:08:00.387Z,49.97
2023-01-25T13:10:33.924Z,47.88
2023-01-25T13:13:04.124Z,41.97
2023-01-25T13:15:45.189Z,53.10
2023-01-25T13:18:36.722Z,49.50
2023-01-25T13:21:11.510Z,44.17
2023-01-25T13:23:47.344Z,54.33
2023-01-25T13:26:26.219Z,53.65
2023-01-25T13:28:54.911Z,52.00
2023-01-25T13:31:52.115Z,55.78
2023-01-25T13:34:42.646Z,51.37
2023-01-25T13:37:19.771Z,48.10
2023-01-25T13:39:48.182Z,49.13
2023-01-25T13:42:25.548Z,52.28
2023-01-25T13:44:58.113Z,56.50
2023-01-25T13:47:31.990Z,56.77
2023-01-25T13:50:21.521Z,54.92
2023-01-25T13:53:03.394Z,55.30
2023-01-25T13:55:38.544Z,51.42
2023-01-25T13:58:36.219Z,50.33
2023-01-25T14:01:18.890Z,48.60
2023-01-25T14:03:51.423Z,51.97
2023-01-25T14:06:28.782Z,52.72
2023-01-25T14:08:59.086Z,49.55
2023-01-25T14:11:31.426Z,57.53
2023-01-25T14:14:19.014Z,55.90
2023-01-25T14:16:45.933Z,54.00
2023-01-25T14:19:23.525Z,52.83
2023-01-25T14:21:50.804Z,55.30
2023-01-25T14:24:19.227Z,54.03
2023-01-25T14:26:47.375Z,53.53
2023-01-25T14:29:35.954Z,53.50
2023-01-25T14:32:03.369Z,57.88
2023-01-25T14:34:29.902Z,56.05
2023-01-25T14:37:18.475Z,63.03
2023-01-25T14:39:46.037Z,55.67
2023-01-25T14:42:12.937Z,54.03
2023-01-25T14:44:40.133Z,50.85
2023-01-25T14:47:31.206Z,55.35
2023-01-25T14:50:28.679Z,55.75
2023-01-25T14:52:55.581Z,53.50
2023-01-25T14:55:22.174Z,59.80
2023-01-25T14:57:49.950Z,54.20
2023-01-25T15:00:20.851Z,62.80
2023-01-25T15:02:55.142Z,57.60
2023-01-25T15:05:28.946Z,57.20
2023-01-25T15:07:57.467Z,61.60
2023-01-25T15:10:30.733Z,55.17
2023-01-25T15:13:04.161Z,48.40
2023-01-25T15:15:35.809Z,57.45
2023-01-25T15:18:02.788Z,56.80
2023-01-25T15:20:31.134Z,41.60
2023-01-25T15:23:00.784Z,60.85
2023-01-25T15:25:27.793Z,56.80
2023-01-25T15:27:54.753Z,56.72
2023-01-25T15:30:21.361Z,54.63
2023-01-25T15:32:49.198Z,65.22
2023-01-25T15:35:21.545Z,63.20
2023-01-25T15:37:49.494Z,62.90
2023-01-25T15:40:17.155Z,58.08
2023-01-25T15:42:43.689Z,67.90
2023-01-25T15:45:10.905Z,67.93
2023-01-25T15:47:38.603Z,60.03
2023-01-25T15:50:06.087Z,58.08
2023-01-25T15:52:32.536Z,49.67
2023-01-25T15:55:01.844Z,52.40
2023-01-25T15:57:36.574Z,65.25
2023-01-25T16:00:04.532Z,52.60
2023-01-25T16:02:31.253Z,52.63
2023-01-25T16:04:57.777Z,62.25
2023-01-25T16:07:28.666Z,58.93
2023-01-25T16:09:55.266Z,57.40
2023-01-25T16:12:25.546Z,59.47
2023-01-25T16:14:52.031Z,49.33
2023-01-25T16:17:20.823Z,59.25
2023-01-25T16:19:48.184Z,60.10
2023-01-25T16:22:15.404Z,53.80
2023-01-25T16:24:43.594Z,56.58
2023-01-25T16:27:16.753Z,60.25
2023-01-25T16:29:43.684Z,69.75
2023-01-25T16:32:10.324Z,58.77
2023-01-25T16:34:36.854Z,64.05
2023-01-25T16:37:03.447Z,62.58
2023-01-25T16:39:32.091Z,60.90
2023-01-25T16:41:58.789Z,54.67
2023-01-25T16:44:25.480Z,58.80
2023-01-25T16:46:52.046Z,56.67
2023-01-25T16:49:22.885Z,59.17
2023-01-25T16:51:50.451Z,58.58
2023-01-25T16:54:17.419Z,63.22
2023-01-25T16:56:44.129Z,54.20
2023-01-25T16:59:11.160Z,63.83
2023-01-25T17:01:41.687Z,57.75
2023-01-25T17:04:09.431Z,62.97
2023-01-25T17:06:38.542Z,56.75
2023-01-25T17:09:21.558Z,48.73
2023-01-25T17:11:49.272Z,49.72
2023-01-25T17:14:18.820Z,53.08
2023-01-25T17:16:47.979Z,51.92
2023-01-25T17:19:16.973Z,45.72
2023-01-25T17:21:43.860Z,55.70
2023-01-25T17:24:13.779Z,51.53
2023-01-25T17:26:40.788Z,48.20
2023-01-25T17:29:07.275Z,55.03
2023-01-25T17:31:34.920Z,52.53
2023-01-25T17:34:03.716Z,51.30
2023-01-25T17:36:30.555Z,53.38
2023-01-25T17:39:01.619Z,61.67
2023-01-25T17:41:28.141Z,56.42
2023-01-25T17:43:54.640Z,56.10
2023-01-25T17:46:27.824Z,59.40
2023-01-25T17:48:54.816Z,67.00
2023-01-25T17:51:23.958Z,63.55
2023-01-25T17:53:51.343Z,65.10
2023-01-25T17:56:19.187Z,63.67
2023-01-25T17:58:45.770Z,69.37
2023-01-25T18:01:14.473Z,64.57
2023-01-25T18:03:43.166Z,60.22
2023-01-25T18:06:16.697Z,61.80
2023-01-25T18:08:45.485Z,67.03
2023-01-25T18:11:18.117Z,62.70
2023-01-25T18:13:47.618Z,62.75
2023-01-25T18:16:14.825Z,70.18
2023-01-25T18:18:42.535Z,67.25
2023-01-25T18:21:12.120Z,66.13
2023-01-25T18:23:40.049Z,76.73
2023-01-25T18:26:09.156Z,62.80
2023-01-25T18:28:36.237Z,65.50
2023-01-25T18:31:06.291Z,69.10
2023-01-25T18:33:33.307Z,70.57
2023-01-25T18:36:02.779Z,76.57
2023-01-25T18:38:30.401Z,72.70
2023-01-25T18:40:57.360Z,68.82
2023-01-25T18:43:24.261Z,69.50
2023-01-25T18:45:55.683Z,74.20
2023-01-25T18:48:30.300Z,70.63
2023-01-25T18:51:05.360Z,69.03
2023-01-25T18:53:33.735Z,73.78
2023-01-25T18:56:14.329Z,83.63
2023-01-25T18:58:41.587Z,77.63
2023-01-25T19:01:11.444Z,67.07
2023-01-25T19:03:37.956Z,66.95
2023-01-25T19:06:05.784Z,78.32
2023-01-25T19:08:33.351Z,72.07
2023-01-25T19:11:06.497Z,73.63
2023-01-25T19:13:34.882Z,80.33
2023-01-25T19:16:16.369Z,81.55
2023-01-25T19:18:47.857Z,81.53
2023-01-25T19:21:16.986Z,87.30
2023-01-25T19:23:43.648Z,79.80
2023-01-25T19:26:15.879Z,82.73
2023-01-25T19:28:43.416Z,91.70
2023-01-25T19:31:15.823Z,80.80
2023-01-25T19:33:42.671Z,80.30
2023-01-25T19:36:15.427Z,76.53
2023-01-25T19:38:42.773Z,73.77
2023-01-25T19:41:12.786Z,75.75
2023-01-25T19:43:43.588Z,85.80
2023-01-25T19:46:21.835Z,80.57
2023-01-25T19:48:50.323Z,75.70
2023-01-25T19:51:28.279Z,84.10
2023-01-25T19:53:58.977Z,77.82
2023-01-25T19:56:27.840Z,81.97
2023-01-25T19:58:54.548Z,88.93
2023-01-25T20:01:23.299Z,92.05
2023-01-25T20:03:50.751Z,83.20
2023-01-25T20:06:19.002Z,91.35
2023-01-25T20:08:47.370Z,93.80
2023-01-25T20:11:22.671Z,83.18
2023-01-25T20:13:51.544Z,101.75
2023-01-25T20:16:18.788Z,92.57
2023-01-25T20:18:47.189Z,97.65
2023-01-25T20:21:16.583Z,90.57
2023-01-25T20:23:45.574Z,96.47
2023-01-25T20:26:18.345Z,92.50
2023-01-25T20:28:47.138Z,98.37
2023-01-25T20:31:41.174Z,92.95
2023-01-25T20:34:12.054Z,95.50
2023-01-25T20:36:39.257Z,91.25
2023-01-25T20:39:07.201Z,94.50
2023-01-25T20:41:34.587Z,98.57
2023-01-25T20:44:04.444Z,98.80
2023-01-25T20:46:33.897Z,96.95
2023-01-25T20:49:01.765Z,74.03
2023-01-25T20:51:28.359Z,95.95
2023-01-25T20:53:55.158Z,94.33
2023-01-25T20:56:21.950Z,104.05
2023-01-25T20:58:52.412Z,93.15
2023-01-25T21:01:21.680Z,104.90
2023-01-25T21:03:49.450Z,104.35
2023-01-25T21:06:17.240Z,99.57
2023-01-25T21:08:43.839Z,92.38
2023-01-25T21:11:11.568Z,94.40
2023-01-25T21:13:38.136Z,101.38
2023-01-25T21:16:19.006Z,103.53
2023-01-25T21:18:48.370Z,96.83
2023-01-25T21:21:18.764Z,110.57
2023-01-25T21:23:46.849Z,99.57
2023-01-25T21:26:19.551Z,106.60
2023-01-25T21:28:46.833Z,97.97
2023-01-25T21:31:22.476Z,108.07
2023-01-25T21:33:49.349Z,103.40
2023-01-25T21:36:16.710Z,105.03
2023-01-25T21:38:48.853Z,110.20
2023-01-25T21:41:21.056Z,112.28
2023-01-25T21:44:07.456Z,105.83
2023-01-25T21:46:34.715Z,109.15
2023-01-25T21:49:26.476Z,96.93
2023-01-25T21:51:55.319Z,98.97
2023-01-25T21:54:24.508Z,91.15
2023-01-25T21:56:53.546Z,96.53
2023-01-25T21:59:20.683Z,108.85
2023-01-25T22:01:48.551Z,102.28
2023-01-25T22:04:16.728Z,101.45
2023-01-25T22:06:44.317Z,94.10
2023-01-25T22:09:13.220Z,112.70
2023-01-25T22:11:40.072Z,90.35
2023-01-25T22:14:06.988Z,106.32
2023-01-25T22:16:33.703Z,106.70
2023-01-25T22:19:00.559Z,110.13
2023-01-25T22:21:30.777Z,117.73
2023-01-25T22:23:58.526Z,104.10
2023-01-25T22:26:27.107Z,96.80
2023-01-25T22:28:56.411Z,103.55
2023-01-25T22:31:31.344Z,113.05
2023-01-25T22:33:59.495Z,104.73
2023-01-25T22:36:27.885Z,95.03
2023-01-25T22:38:54.458Z,101.97
2023-01-25T22:41:26.988Z,95.95
2023-01-25T22:43:54.216Z,105.03
2023-01-25T22:46:26.204Z,98.57
2023-01-25T22:48:52.781Z,93.05
2023-01-25T22:51:25.715Z,97.28
2023-01-25T22:53:53.177Z,95.80
2023-01-25T22:56:23.099Z,95.10
2023-01-25T22:58:50.234Z,96.73
2023-01-25T23:01:23.041Z,96.20
2023-01-25T23:03:50.414Z,92.95
2023-01-25T23:06:25.338Z,95.32
2023-01-25T23:08:55.252Z,93.38
2023-01-25T23:11:23.473Z,89.57
2023-01-25T23:14:08.625Z,98.75
2023-01-25T23:16:35.798Z,95.30
2023-01-25T23:19:04.220Z,99.20
2023-01-25T23:21:31.687Z,100.38
2023-01-25T23:24:03.054Z,101.17
2023-01-25T23:26:39.041Z,92.15
2023-01-25T23:29:09.122Z,97.13
2023-01-25T23:31:35.784Z,98.95
2023-01-25T23:34:04.937Z,94.82
2023-01-25T23:36:34.873Z,99.83
2023-01-25T23:39:01.942Z,95.70
2023-01-25T23:41:29.535Z,85.85
2023-01-25T23:43:57.800Z,81.90
2023-01-25T23:46:24.915Z,83.13
2023-01-25T23:48:51.539Z,78.40
2023-01-25T23:51:18.809Z,78.40
2023-01-25T23:53:45.831Z,81.15
2023-01-25T23:56:15.000Z,82.97
2023-01-25T23:58:41.846Z,84.20
